Bellefountain, Indiana
Current Conditions -  °F | °C
As of 1:53 PM on Friday 24 Oct 2014 (Local Time) from KMIE Reporting Station
Overcast Overcast  
Wind Chill: 17°   Ceiling: 3600
Heat Index: 17°   Visibility: 10mi
Dew Point:   Wind: 7mph
Humidity: 52%   Direction: 270°W
Pressure: 30.06"   Gusts: NA
Location:  40.4312°N, 85.0058°W
Report Text: KMIE 241753Z 27006KT 10SM FEW029 OVC036 17/07 A3006 RMK AO2 SLP178 T01670067 10172 20061 58013
Loading
Personal Weather Stations






























Interactive Weather Map
Tropical Storm Tracking
New forecast layout! Learn more

10-Day Weather Forecast

Advertisements
Track Severe Weather on mobile